createdAt,value
2023-05-25T00:01:44.954Z,6.60
2023-05-25T00:04:17.744Z,4.80
2023-05-25T00:06:45.657Z,2.20
2023-05-25T00:09:13.618Z,7.40
2023-05-25T00:11:41.245Z,7.00
2023-05-25T00:14:08.874Z,5.20
2023-05-25T00:16:38.509Z,6.80
2023-05-25T00:19:06.227Z,3.80
2023-05-25T00:21:38.306Z,6.60
2023-05-25T00:24:06.100Z,5.60
2023-05-25T00:26:33.937Z,7.40
2023-05-25T00:29:02.012Z,7.80
2023-05-25T00:31:29.909Z,4.80
2023-05-25T00:33:57.664Z,3.80
2023-05-25T00:36:25.290Z,6.40
2023-05-25T00:38:53.123Z,4.80
2023-05-25T00:41:21.269Z,4.00
2023-05-25T00:43:49.371Z,6.00
2023-05-25T00:46:17.072Z,8.60
2023-05-25T00:48:44.762Z,4.00
2023-05-25T00:51:12.581Z,6.75
2023-05-25T00:53:40.567Z,6.00
2023-05-25T00:56:08.234Z,7.00
2023-05-25T00:58:35.966Z,5.50
2023-05-25T01:01:03.581Z,6.00
2023-05-25T01:03:31.416Z,8.00
2023-05-25T01:05:59.563Z,5.00
2023-05-25T01:08:27.138Z,8.50
2023-05-25T01:10:54.907Z,6.50
2023-05-25T01:13:22.528Z,3.25
2023-05-25T01:15:50.185Z,3.80
2023-05-25T01:18:18.468Z,6.00
2023-05-25T01:20:46.157Z,5.00
2023-05-25T01:23:14.126Z,8.20
2023-05-25T01:25:42.039Z,6.80
2023-05-25T01:28:10.983Z,5.60
2023-05-25T01:30:38.597Z,4.00
2023-05-25T01:33:06.441Z,6.00
2023-05-25T01:35:34.071Z,7.60
2023-05-25T01:38:01.695Z,3.20
2023-05-25T01:40:29.410Z,6.00
2023-05-25T01:42:57.708Z,4.00
2023-05-25T01:45:25.296Z,8.20
2023-05-25T01:47:53.022Z,3.60
2023-05-25T01:50:20.993Z,7.80
2023-05-25T01:52:48.593Z,5.60
2023-05-25T01:55:16.600Z,9.20
2023-05-25T01:57:44.203Z,5.20
2023-05-25T02:00:12.086Z,6.60
2023-05-25T02:02:39.827Z,7.40
2023-05-25T02:05:07.697Z,5.00
2023-05-25T02:07:35.694Z,4.00
2023-05-25T02:10:03.352Z,6.40
2023-05-25T02:12:31.363Z,4.40
2023-05-25T02:14:58.946Z,7.40
2023-05-25T02:17:28.888Z,4.00
2023-05-25T02:19:56.694Z,4.40
2023-05-25T02:22:24.353Z,7.00
2023-05-25T02:24:52.025Z,8.20
2023-05-25T02:27:19.674Z,6.80
2023-05-25T02:29:47.336Z,6.00
2023-05-25T02:32:15.366Z,6.40
2023-05-25T02:34:42.982Z,8.60
2023-05-25T02:37:10.702Z,6.60
2023-05-25T02:39:38.344Z,6.80
2023-05-25T02:42:06.116Z,6.00
2023-05-25T02:44:34.132Z,6.40
2023-05-25T02:47:02.028Z,6.00
2023-05-25T02:49:30.103Z,6.60
2023-05-25T02:51:57.716Z,5.20
2023-05-25T02:54:27.041Z,11.20
2023-05-25T02:56:55.143Z,5.00
2023-05-25T02:59:22.807Z,7.20
2023-05-25T03:01:50.693Z,7.00
2023-05-25T03:04:18.882Z,9.60
2023-05-25T03:06:46.598Z,6.00
2023-05-25T03:09:14.613Z,4.40
2023-05-25T03:11:42.265Z,7.00
2023-05-25T03:14:09.864Z,6.80
2023-05-25T03:16:39.245Z,6.00
2023-05-25T03:19:07.615Z,9.00
2023-05-25T03:21:35.674Z,8.20
2023-05-25T03:24:03.390Z,8.60
2023-05-25T03:26:32.396Z,6.00
2023-05-25T03:29:00.165Z,3.20
2023-05-25T03:31:28.004Z,8.20
2023-05-25T03:33:55.637Z,6.00
2023-05-25T03:36:23.272Z,3.00
2023-05-25T03:38:51.357Z,5.40
2023-05-25T03:41:19.700Z,3.00
2023-05-25T03:43:47.338Z,7.00
2023-05-25T03:46:15.315Z,6.00
2023-05-25T03:48:42.976Z,5.60
2023-05-25T03:51:10.866Z,5.20
2023-05-25T03:53:38.643Z,4.40
2023-05-25T03:56:06.452Z,9.00
2023-05-25T03:58:34.438Z,3.00
2023-05-25T04:01:04.328Z,4.00
2023-05-25T04:03:33.861Z,4.00
2023-05-25T04:06:02.251Z,6.00
2023-05-25T04:08:29.999Z,5.80
2023-05-25T04:10:57.842Z,7.00
2023-05-25T04:13:25.533Z,3.00
2023-05-25T04:15:53.243Z,8.20
2023-05-25T04:18:20.916Z,3.60
2023-05-25T04:20:48.794Z,6.00
2023-05-25T04:23:17.095Z,3.80
2023-05-25T04:25:45.702Z,5.60
2023-05-25T04:28:13.508Z,6.00
2023-05-25T04:30:41.829Z,5.20
2023-05-25T04:33:11.714Z,8.60
2023-05-25T04:35:40.927Z,3.60
2023-05-25T04:38:08.685Z,3.00
2023-05-25T04:40:36.332Z,4.00
2023-05-25T04:43:05.294Z,5.20
2023-05-25T04:45:34.452Z,4.40
2023-05-25T04:48:03.479Z,7.00
2023-05-25T04:50:31.161Z,8.20
2023-05-25T04:52:58.810Z,4.00
2023-05-25T04:55:26.424Z,5.60
2023-05-25T04:57:55.236Z,6.80
2023-05-25T05:00:23.345Z,6.40
2023-05-25T05:02:51.649Z,7.40
2023-05-25T05:05:19.410Z,3.00
2023-05-25T05:07:47.101Z,5.20
2023-05-25T05:10:14.979Z,6.20
2023-05-25T05:12:42.987Z,4.00
2023-05-25T05:15:10.751Z,6.00
2023-05-25T05:17:38.637Z,6.20
2023-05-25T05:20:08.808Z,5.60
2023-05-25T05:22:36.739Z,3.00
2023-05-25T05:25:04.644Z,5.60
2023-05-25T05:27:32.441Z,3.80
2023-05-25T05:30:00.668Z,5.20
2023-05-25T05:32:28.326Z,6.25
2023-05-25T05:34:56.212Z,6.25
2023-05-25T05:37:24.281Z,6.00
2023-05-25T05:39:53.388Z,3.00
2023-05-25T05:42:21.113Z,7.50
2023-05-25T05:44:48.897Z,7.00
2023-05-25T05:47:16.623Z,6.50
2023-05-25T05:49:44.644Z,10.50
2023-05-25T05:52:12.789Z,7.00
2023-05-25T05:54:40.483Z,9.00
2023-05-25T05:57:08.205Z,9.75
2023-05-25T05:59:35.981Z,9.25
2023-05-25T06:02:04.066Z,11.00
2023-05-25T06:04:31.749Z,9.00
2023-05-25T06:06:59.725Z,7.00
2023-05-25T06:09:27.555Z,4.50
2023-05-25T06:11:55.478Z,5.00
2023-05-25T06:14:24.479Z,7.50
2023-05-25T06:16:53.399Z,9.00
2023-05-25T06:19:21.180Z,9.50
2023-05-25T06:21:48.986Z,12.25
2023-05-25T06:24:16.750Z,11.50
2023-05-25T06:26:44.568Z,10.00
2023-05-25T06:29:13.278Z,10.00
2023-05-25T06:31:42.566Z,9.25
2023-05-25T06:34:10.289Z,12.75
2023-05-25T06:36:38.199Z,15.00
2023-05-25T06:39:06.224Z,8.00
2023-05-25T06:41:34.051Z,12.25
2023-05-25T06:44:01.824Z,12.00
2023-05-25T06:46:29.797Z,12.25
2023-05-25T06:48:57.741Z,10.00
2023-05-25T06:51:28.039Z,10.50
2023-05-25T06:53:55.733Z,10.00
2023-05-25T06:56:24.048Z,12.00
2023-05-25T06:58:52.142Z,7.00
2023-05-25T07:01:19.915Z,12.50
2023-05-25T07:03:48.124Z,10.00
2023-05-25T07:06:17.300Z,11.50
2023-05-25T07:08:45.076Z,10.75
2023-05-25T07:11:14.410Z,12.75
2023-05-25T07:13:42.360Z,12.00
2023-05-25T07:16:10.399Z,11.75
2023-05-25T07:18:38.186Z,15.75
2023-05-25T07:21:07.100Z,10.50
2023-05-25T07:23:34.889Z,10.00
2023-05-25T07:26:05.625Z,16.50
2023-05-25T07:28:33.685Z,16.50
2023-05-25T07:31:01.654Z,15.50
2023-05-25T07:33:29.502Z,10.50
2023-05-25T07:35:57.435Z,13.25
2023-05-25T07:38:25.148Z,15.75
2023-05-25T07:40:52.893Z,13.00
2023-05-25T07:43:21.209Z,17.75
2023-05-25T07:45:48.968Z,13.00
2023-05-25T07:48:16.803Z,16.50
2023-05-25T07:50:44.594Z,14.50
2023-05-25T07:53:12.584Z,15.25
2023-05-25T07:55:40.324Z,16.00
2023-05-25T07:58:08.923Z,7.00
2023-05-25T08:00:36.877Z,16.50
2023-05-25T08:03:05.022Z,15.00
2023-05-25T08:05:33.436Z,15.75
2023-05-25T08:08:01.095Z,18.00
2023-05-25T08:10:32.399Z,12.50
2023-05-25T08:13:00.268Z,15.75
2023-05-25T08:15:29.674Z,9.75
2023-05-25T08:17:58.196Z,14.50
2023-05-25T08:20:26.402Z,12.00
2023-05-25T08:22:54.860Z,12.50
2023-05-25T08:25:22.605Z,10.50
2023-05-25T08:27:50.422Z,12.00
2023-05-25T08:30:18.598Z,9.75
2023-05-25T08:32:46.727Z,12.50
2023-05-25T08:35:15.363Z,10.25
2023-05-25T08:37:43.696Z,10.50
2023-05-25T08:40:11.503Z,11.00
2023-05-25T08:42:39.700Z,9.00
2023-05-25T08:45:12.459Z,14.25
2023-05-25T08:47:45.080Z,9.00
2023-05-25T08:50:13.134Z,13.25
2023-05-25T08:52:41.217Z,11.50
2023-05-25T08:55:09.135Z,9.75
2023-05-25T08:57:36.907Z,9.00
2023-05-25T09:00:06.498Z,12.00
2023-05-25T09:02:34.364Z,10.50
2023-05-25T09:05:02.687Z,11.50
2023-05-25T09:07:30.395Z,16.00
2023-05-25T09:09:58.254Z,9.25
2023-05-25T09:12:25.945Z,10.50
2023-05-25T09:14:54.093Z,11.25
2023-05-25T09:17:22.707Z,12.00
2023-05-25T09:19:50.839Z,12.25
2023-05-25T09:22:18.637Z,11.50
2023-05-25T09:24:46.570Z,11.50
2023-05-25T09:27:15.756Z,12.00
2023-05-25T09:29:43.969Z,9.00
2023-05-25T09:32:11.909Z,6.50
2023-05-25T09:34:40.068Z,12.75
2023-05-25T09:37:08.159Z,10.75
2023-05-25T09:39:36.357Z,11.75
2023-05-25T09:42:04.545Z,7.50
2023-05-25T09:44:32.366Z,12.75
2023-05-25T09:47:00.310Z,9.00
2023-05-25T09:49:28.398Z,10.50
2023-05-25T09:51:56.441Z,12.00
2023-05-25T09:54:24.656Z,11.50
2023-05-25T09:56:52.458Z,16.00
2023-05-25T09:59:20.253Z,12.25
2023-05-25T10:01:48.337Z,12.25
2023-05-25T10:04:16.267Z,11.00
2023-05-25T10:06:44.501Z,10.50
2023-05-25T10:09:12.478Z,9.00
2023-05-25T10:11:40.761Z,8.25
2023-05-25T10:14:08.758Z,7.50
2023-05-25T10:16:36.856Z,8.00
2023-05-25T10:19:04.697Z,14.50
2023-05-25T10:21:32.741Z,14.00
2023-05-25T10:24:00.740Z,9.25
2023-05-25T10:26:28.527Z,7.50
2023-05-25T10:28:56.278Z,10.50
2023-05-25T10:31:28.979Z,4.00
2023-05-25T10:33:57.058Z,12.50
2023-05-25T10:36:24.870Z,10.00
2023-05-25T10:38:52.725Z,10.50
2023-05-25T10:41:20.507Z,14.50
2023-05-25T10:43:48.643Z,7.00
2023-05-25T10:46:16.781Z,12.50
2023-05-25T10:48:44.581Z,9.75
2023-05-25T10:51:12.496Z,9.75
2023-05-25T10:53:42.481Z,7.00
2023-05-25T10:56:11.102Z,7.00
2023-05-25T10:58:39.034Z,11.00
2023-05-25T11:01:07.028Z,7.25
2023-05-25T11:03:34.917Z,12.25
2023-05-25T11:06:03.118Z,10.50
2023-05-25T11:08:31.496Z,12.75
2023-05-25T11:10:59.351Z,12.00
2023-05-25T11:13:27.095Z,13.75
2023-05-25T11:15:55.303Z,9.25
2023-05-25T11:18:23.061Z,16.75
2023-05-25T11:20:51.950Z,14.00
2023-05-25T11:23:19.874Z,15.00
2023-05-25T11:25:47.899Z,9.50
2023-05-25T11:28:15.868Z,7.60
2023-05-25T11:30:44.301Z,14.00
2023-05-25T11:33:12.546Z,12.50
2023-05-25T11:35:40.474Z,13.20
2023-05-25T11:38:08.399Z,13.00
2023-05-25T11:40:47.415Z,10.40
2023-05-25T11:43:16.681Z,10.00
2023-05-25T11:45:44.541Z,11.60
2023-05-25T11:48:12.282Z,11.60
2023-05-25T11:50:40.274Z,16.00
2023-05-25T11:53:08.388Z,12.60
2023-05-25T11:55:36.860Z,12.80
2023-05-25T11:58:04.708Z,16.40
2023-05-25T12:00:32.731Z,13.80
2023-05-25T12:03:00.702Z,15.60
2023-05-25T12:05:28.875Z,12.60
2023-05-25T12:07:57.384Z,18.80
2023-05-25T12:10:25.162Z,14.00
2023-05-25T12:12:53.170Z,15.40
2023-05-25T12:15:21.957Z,12.20
2023-05-25T12:17:49.997Z,15.60
2023-05-25T12:20:19.933Z,19.00
2023-05-25T12:22:47.784Z,7.25
2023-05-25T12:25:16.161Z,15.60
2023-05-25T12:27:44.288Z,15.20
2023-05-25T12:30:12.078Z,15.60
2023-05-25T12:32:40.522Z,12.40
2023-05-25T12:35:08.467Z,16.80
2023-05-25T12:37:36.219Z,7.20
2023-05-25T12:40:04.785Z,15.60
2023-05-25T12:42:34.571Z,12.40
2023-05-25T12:45:02.808Z,8.80
2023-05-25T12:47:32.506Z,13.80
2023-05-25T12:50:00.417Z,15.60
2023-05-25T12:52:28.175Z,6.00
2023-05-25T12:54:56.029Z,11.80
2023-05-25T12:57:24.324Z,7.20
2023-05-25T12:59:52.012Z,14.60
2023-05-25T13:02:19.829Z,15.00
2023-05-25T13:04:47.715Z,16.00
2023-05-25T13:07:16.125Z,13.40
2023-05-25T13:09:44.972Z,14.40
2023-05-25T13:12:13.096Z,15.60
2023-05-25T13:14:41.537Z,15.60
2023-05-25T13:17:09.589Z,18.00
2023-05-25T13:19:37.544Z,12.00
2023-05-25T13:22:06.094Z,15.60
2023-05-25T13:24:34.339Z,16.00
2023-05-25T13:27:02.339Z,15.50
2023-05-25T13:29:30.121Z,15.75
2023-05-25T13:31:58.029Z,5.50
2023-05-25T13:34:26.648Z,12.60
2023-05-25T13:36:54.498Z,12.60
2023-05-25T13:39:22.962Z,10.80
2023-05-25T13:41:50.867Z,14.60
2023-05-25T13:44:18.565Z,13.80
2023-05-25T13:46:48.788Z,6.60
2023-05-25T13:49:19.898Z,13.00
2023-05-25T13:51:47.771Z,12.80
2023-05-25T13:54:15.501Z,19.40
2023-05-25T13:56:43.379Z,11.80
2023-05-25T13:59:11.997Z,17.20
2023-05-25T14:01:39.897Z,12.60
2023-05-25T14:04:07.935Z,16.00
2023-05-25T14:06:36.315Z,15.20
2023-05-25T14:09:04.546Z,16.00
2023-05-25T14:11:33.176Z,12.80
2023-05-25T14:14:01.008Z,16.20
2023-05-25T14:16:28.896Z,12.20
2023-05-25T14:18:57.061Z,12.20
2023-05-25T14:21:24.903Z,15.80
2023-05-25T14:23:53.017Z,12.40
2023-05-25T14:26:22.407Z,14.20
2023-05-25T14:28:50.298Z,12.80
2023-05-25T14:31:18.426Z,10.80
2023-05-25T14:33:46.371Z,18.40
2023-05-25T14:36:14.438Z,13.40
2023-05-25T14:38:42.241Z,14.60
2023-05-25T14:41:10.051Z,14.20
2023-05-25T14:43:37.845Z,15.00
2023-05-25T14:46:06.151Z,12.60
2023-05-25T14:48:34.556Z,10.00
2023-05-25T14:51:04.198Z,11.20
2023-05-25T14:53:32.572Z,17.80
2023-05-25T14:56:00.360Z,10.00
2023-05-25T14:58:29.037Z,12.60
2023-05-25T15:00:57.396Z,14.60
2023-05-25T15:03:25.324Z,8.40
2023-05-25T15:05:53.319Z,10.20
2023-05-25T15:08:21.125Z,8.20
2023-05-25T15:10:49.351Z,11.20
2023-05-25T15:13:17.743Z,10.80
2023-05-25T15:15:46.340Z,12.00
2023-05-25T15:18:14.587Z,9.40
2023-05-25T15:20:42.506Z,11.60
2023-05-25T15:23:10.519Z,10.80
2023-05-25T15:25:38.897Z,11.00
2023-05-25T15:28:06.981Z,12.00
2023-05-25T15:30:34.719Z,8.20
2023-05-25T15:33:02.513Z,9.40
2023-05-25T15:35:32.588Z,8.80
2023-05-25T15:38:00.824Z,11.20
2023-05-25T15:40:28.630Z,12.20
2023-05-25T15:42:56.466Z,10.20
2023-05-25T15:45:25.187Z,4.20
2023-05-25T15:47:53.044Z,12.00
2023-05-25T15:50:21.754Z,9.80
2023-05-25T15:52:49.617Z,11.20
2023-05-25T15:55:17.420Z,10.40
2023-05-25T15:57:45.181Z,10.00
2023-05-25T16:00:13.382Z,7.40
2023-05-25T16:02:41.736Z,9.80
2023-05-25T16:05:09.894Z,9.60
2023-05-25T16:07:37.758Z,7.00
2023-05-25T16:10:05.704Z,9.80
2023-05-25T16:12:33.521Z,8.80
2023-05-25T16:15:01.883Z,9.80
2023-05-25T16:17:30.094Z,6.00
2023-05-25T16:19:57.910Z,7.60
2023-05-25T16:22:26.110Z,11.20
2023-05-25T16:24:53.958Z,8.20
2023-05-25T16:27:22.552Z,8.60
2023-05-25T16:29:50.519Z,11.60
2023-05-25T16:32:18.491Z,12.00
2023-05-25T16:34:46.424Z,11.40
2023-05-25T16:37:14.277Z,8.40
2023-05-25T16:39:42.887Z,12.60
2023-05-25T16:42:10.897Z,11.80
2023-05-25T16:44:39.128Z,10.60
2023-05-25T16:47:07.103Z,10.20
2023-05-25T16:49:34.940Z,8.40
2023-05-25T16:52:04.271Z,12.40
2023-05-25T16:54:32.112Z,4.60
2023-05-25T16:56:59.989Z,9.20
2023-05-25T16:59:27.705Z,9.80
2023-05-25T17:01:56.068Z,11.40
2023-05-25T17:04:24.687Z,9.60
2023-05-25T17:06:52.614Z,8.80
2023-05-25T17:09:21.310Z,12.40
2023-05-25T17:11:50.044Z,9.00
2023-05-25T17:14:19.076Z,9.80
2023-05-25T17:16:47.615Z,10.00
2023-05-25T17:19:15.964Z,9.80
2023-05-25T17:21:43.878Z,7.00
2023-05-25T17:24:11.941Z,9.20
2023-05-25T17:26:39.805Z,7.80
2023-05-25T17:29:09.065Z,8.50
2023-05-25T17:31:37.014Z,9.00
2023-05-25T17:34:04.767Z,9.50
2023-05-25T17:36:32.538Z,10.00
2023-05-25T17:39:00.386Z,9.75
2023-05-25T17:41:29.220Z,6.60
2023-05-25T17:43:57.150Z,9.75
2023-05-25T17:46:25.017Z,10.00
2023-05-25T17:48:52.899Z,12.00
2023-05-25T17:51:21.138Z,10.00
2023-05-25T17:53:49.511Z,15.25
2023-05-25T17:56:17.309Z,11.50
2023-05-25T17:58:47.715Z,10.00
2023-05-25T18:01:16.286Z,11.00
2023-05-25T18:03:44.330Z,10.25
2023-05-25T18:06:12.471Z,11.00
2023-05-25T18:08:40.318Z,7.00
2023-05-25T18:11:08.492Z,9.00
2023-05-25T18:13:36.604Z,11.50
2023-05-25T18:16:04.415Z,8.00
2023-05-25T18:18:32.479Z,6.00
2023-05-25T18:21:00.260Z,10.75
2023-05-25T18:23:28.300Z,9.00
2023-05-25T18:25:56.294Z,8.00
2023-05-25T18:28:24.134Z,7.00
2023-05-25T18:30:52.754Z,10.00
2023-05-25T18:33:20.855Z,11.50
2023-05-25T18:35:48.669Z,10.50
2023-05-25T18:38:16.759Z,8.00
2023-05-25T18:40:44.706Z,12.25
2023-05-25T18:43:12.606Z,9.50
2023-05-25T18:45:40.522Z,13.50
2023-05-25T18:48:09.211Z,9.25
2023-05-25T18:50:37.817Z,11.00
2023-05-25T18:53:07.864Z,10.75
2023-05-25T18:55:37.304Z,6.25
2023-05-25T18:58:05.220Z,8.50
2023-05-25T19:00:33.200Z,10.50
2023-05-25T19:03:01.242Z,5.00
2023-05-25T19:05:29.114Z,7.50
2023-05-25T19:07:59.508Z,7.50
2023-05-25T19:10:27.967Z,7.00
2023-05-25T19:12:55.887Z,7.00
2023-05-25T19:15:23.794Z,6.50
2023-05-25T19:17:52.323Z,9.00
2023-05-25T19:20:20.994Z,9.00
2023-05-25T19:22:48.965Z,7.00
2023-05-25T19:25:16.921Z,7.50
2023-05-25T19:27:44.677Z,6.50
2023-05-25T19:30:13.478Z,9.75
2023-05-25T19:32:42.149Z,9.00
2023-05-25T19:35:10.086Z,6.75
2023-05-25T19:37:38.312Z,8.00
2023-05-25T19:40:06.692Z,10.00
2023-05-25T19:42:34.536Z,7.00
2023-05-25T19:45:03.110Z,9.25
2023-05-25T19:47:31.000Z,5.00
2023-05-25T19:49:58.804Z,6.75
2023-05-25T19:52:26.794Z,12.50
2023-05-25T19:54:54.649Z,7.00
2023-05-25T19:57:22.876Z,9.00
2023-05-25T19:59:51.453Z,6.50
2023-05-25T20:02:20.019Z,8.00
2023-05-25T20:04:47.866Z,11.50
2023-05-25T20:07:15.747Z,9.50
2023-05-25T20:09:44.165Z,9.25
2023-05-25T20:12:12.071Z,8.00
2023-05-25T20:14:40.115Z,11.00
2023-05-25T20:17:07.827Z,12.00
2023-05-25T20:19:35.676Z,9.25
2023-05-25T20:22:04.897Z,12.00
2023-05-25T20:24:33.617Z,12.00
2023-05-25T20:27:01.886Z,10.00
2023-05-25T20:29:29.886Z,9.50
2023-05-25T20:31:57.702Z,11.50
2023-05-25T20:34:26.609Z,8.00
2023-05-25T20:36:54.472Z,10.00
2023-05-25T20:39:23.799Z,10.00
2023-05-25T20:41:51.628Z,7.00
2023-05-25T20:44:19.608Z,6.75
2023-05-25T20:46:49.428Z,10.75
2023-05-25T20:49:17.271Z,7.00
2023-05-25T20:51:50.159Z,7.50
2023-05-25T20:54:18.118Z,10.50
2023-05-25T20:56:47.745Z,6.00
2023-05-25T20:59:16.010Z,8.50
2023-05-25T21:01:44.405Z,8.50
2023-05-25T21:04:12.257Z,9.50
2023-05-25T21:06:40.071Z,9.50
2023-05-25T21:09:07.914Z,9.75
2023-05-25T21:11:36.235Z,4.50
2023-05-25T21:14:04.110Z,14.00
2023-05-25T21:16:32.163Z,7.00
2023-05-25T21:19:00.028Z,12.25
2023-05-25T21:21:29.138Z,9.50
2023-05-25T21:23:57.193Z,6.75
2023-05-25T21:26:24.957Z,11.00
2023-05-25T21:28:53.116Z,9.00
2023-05-25T21:31:21.076Z,10.00
2023-05-25T21:33:48.813Z,13.50
2023-05-25T21:36:17.060Z,12.00
2023-05-25T21:38:44.862Z,9.50
2023-05-25T21:41:12.569Z,14.25
2023-05-25T21:43:40.344Z,14.00
2023-05-25T21:46:08.093Z,10.00
2023-05-25T21:48:36.356Z,11.50
2023-05-25T21:51:04.480Z,15.00
2023-05-25T21:53:32.123Z,6.00
2023-05-25T21:55:59.921Z,13.00
2023-05-25T21:58:27.688Z,12.00
2023-05-25T22:00:55.420Z,10.00
2023-05-25T22:03:23.271Z,9.00
2023-05-25T22:05:51.056Z,7.00
2023-05-25T22:08:18.751Z,13.50
2023-05-25T22:10:46.505Z,15.25
2023-05-25T22:13:16.271Z,10.00
2023-05-25T22:15:44.163Z,4.50
2023-05-25T22:18:12.038Z,13.25
2023-05-25T22:20:41.682Z,11.00
2023-05-25T22:23:09.754Z,6.00
2023-05-25T22:25:37.808Z,9.00
2023-05-25T22:28:05.593Z,11.00
2023-05-25T22:30:33.271Z,8.50
2023-05-25T22:33:01.035Z,12.25
2023-05-25T22:35:28.834Z,8.00
2023-05-25T22:37:57.053Z,10.50
2023-05-25T22:40:24.878Z,3.50
2023-05-25T22:42:52.614Z,6.50
2023-05-25T22:45:20.347Z,9.00
2023-05-25T22:47:48.049Z,12.00
2023-05-25T22:50:16.347Z,7.00
2023-05-25T22:52:44.006Z,3.75
2023-05-25T22:55:12.098Z,8.00
2023-05-25T22:57:39.785Z,5.25
2023-05-25T23:00:07.496Z,8.00
2023-05-25T23:02:35.767Z,4.25
2023-05-25T23:05:03.614Z,4.75
2023-05-25T23:07:31.492Z,3.75
2023-05-25T23:09:59.136Z,5.50
2023-05-25T23:12:26.890Z,3.00
2023-05-25T23:14:56.657Z,4.00
2023-05-25T23:17:24.617Z,1.00
2023-05-25T23:19:53.651Z,3.75
2023-05-25T23:22:21.366Z,4.00
2023-05-25T23:24:48.994Z,2.00
2023-05-25T23:27:16.974Z,1.00
2023-05-25T23:29:44.653Z,4.00
2023-05-25T23:32:12.308Z,2.00
2023-05-25T23:34:39.980Z,3.00
2023-05-25T23:37:07.655Z,4.00
2023-05-25T23:39:37.101Z,4.00
2023-05-25T23:42:04.805Z,2.00
2023-05-25T23:44:32.438Z,3.00
2023-05-25T23:47:00.212Z,3.00
2023-05-25T23:49:27.893Z,2.00
2023-05-25T23:51:55.894Z,4.00
2023-05-25T23:54:23.566Z,3.00
2023-05-25T23:56:51.797Z,3.50
2023-05-25T23:59:19.480Z,3.50
